sensor_id;sensor_type;location;lat;lon;timestamp;pressure;altitude;pressure_sealevel;temperature;humidity
6453;BME280;3259;51.080;13.712;2023-07-29T00:01:08;99692.47;;;27.66;49.74
6453;BME280;3259;51.080;13.712;2023-07-29T00:03:57;99697.47;;;27.62;50.00
6453;BME280;3259;51.080;13.712;2023-07-29T00:06:45;99696.75;;;27.55;49.98
6453;BME280;3259;51.080;13.712;2023-07-29T00:09:34;99688.84;;;27.60;49.98
6453;BME280;3259;51.080;13.712;2023-07-29T00:12:26;99696.63;;;27.62;49.88
6453;BME280;3259;51.080;13.712;2023-07-29T00:15:15;99695.84;;;27.61;49.75
6453;BME280;3259;51.080;13.712;2023-07-29T00:18:03;99699.22;;;27.57;49.59
6453;BME280;3259;51.080;13.712;2023-07-29T00:20:52;99698.84;;;27.53;49.89
6453;BME280;3259;51.080;13.712;2023-07-29T00:23:41;99693.47;;;27.53;50.09
6453;BME280;3259;51.080;13.712;2023-07-29T00:26:29;99701.06;;;27.56;49.86
6453;BME280;3259;51.080;13.712;2023-07-29T00:29:20;99703.41;;;27.53;49.95
6453;BME280;3259;51.080;13.712;2023-07-29T00:32:09;99695.69;;;27.56;50.04
6453;BME280;3259;51.080;13.712;2023-07-29T00:34:58;99693.00;;;27.56;49.99
6453;BME280;3259;51.080;13.712;2023-07-29T00:37:48;99690.94;;;27.58;50.05
6453;BME280;3259;51.080;13.712;2023-07-29T00:40:36;99684.28;;;27.49;50.07
6453;BME280;3259;51.080;13.712;2023-07-29T00:43:25;99682.41;;;27.50;50.12
6453;BME280;3259;51.080;13.712;2023-07-29T00:46:16;99681.72;;;27.54;50.20
6453;BME280;3259;51.080;13.712;2023-07-29T00:49:06;99682.88;;;27.47;50.06
6453;BME280;3259;51.080;13.712;2023-07-29T00:51:55;99685.81;;;27.45;50.36
6453;BME280;3259;51.080;13.712;2023-07-29T00:54:43;99688.22;;;27.47;50.15
6453;BME280;3259;51.080;13.712;2023-07-29T00:57:32;99689.06;;;27.47;50.10
6453;BME280;3259;51.080;13.712;2023-07-29T01:00:22;99683.22;;;27.50;50.23
6453;BME280;3259;51.080;13.712;2023-07-29T01:03:12;99678.34;;;27.47;50.14
6453;BME280;3259;51.080;13.712;2023-07-29T01:06:09;99674.63;;;27.48;50.16
6453;BME280;3259;51.080;13.712;2023-07-29T01:09:03;99680.06;;;27.42;50.29
6453;BME280;3259;51.080;13.712;2023-07-29T01:12:03;99680.88;;;27.42;50.39
6453;BME280;3259;51.080;13.712;2023-07-29T01:14:59;99666.91;;;27.40;50.43
6453;BME280;3259;51.080;13.712;2023-07-29T01:17:54;99674.47;;;27.43;50.43
6453;BME280;3259;51.080;13.712;2023-07-29T01:20:45;99673.63;;;27.31;50.47
6453;BME280;3259;51.080;13.712;2023-07-29T01:23:37;99665.28;;;27.39;50.42
6453;BME280;3259;51.080;13.712;2023-07-29T01:26:25;99661.19;;;27.37;50.21
6453;BME280;3259;51.080;13.712;2023-07-29T01:29:16;99664.53;;;27.32;50.41
6453;BME280;3259;51.080;13.712;2023-07-29T01:32:11;99662.47;;;27.34;50.33
6453;BME280;3259;51.080;13.712;2023-07-29T01:35:10;99659.91;;;27.39;50.40
6453;BME280;3259;51.080;13.712;2023-07-29T01:38:14;99657.13;;;27.34;50.53
6453;BME280;3259;51.080;13.712;2023-07-29T01:41:08;99651.53;;;27.36;50.35
6453;BME280;3259;51.080;13.712;2023-07-29T01:43:57;99654.56;;;27.39;50.39
6453;BME280;3259;51.080;13.712;2023-07-29T01:46:47;99661.53;;;27.40;50.47
6453;BME280;3259;51.080;13.712;2023-07-29T01:49:35;99664.13;;;27.35;50.65
6453;BME280;3259;51.080;13.712;2023-07-29T01:52:24;99660.84;;;27.33;50.65
6453;BME280;3259;51.080;13.712;2023-07-29T01:55:13;99656.28;;;27.34;50.89
6453;BME280;3259;51.080;13.712;2023-07-29T01:58:03;99658.59;;;27.30;51.09
6453;BME280;3259;51.080;13.712;2023-07-29T02:00:51;99662.47;;;27.34;50.84
6453;BME280;3259;51.080;13.712;2023-07-29T02:03:40;99659.56;;;27.36;50.97
6453;BME280;3259;51.080;13.712;2023-07-29T02:06:29;99657.13;;;27.34;50.66
6453;BME280;3259;51.080;13.712;2023-07-29T02:09:18;99652.09;;;27.38;50.57
6453;BME280;3259;51.080;13.712;2023-07-29T02:12:07;99652.34;;;27.36;50.53
6453;BME280;3259;51.080;13.712;2023-07-29T02:14:57;99657.56;;;27.31;50.76
6453;BME280;3259;51.080;13.712;2023-07-29T02:17:46;99654.75;;;27.26;50.78
6453;BME280;3259;51.080;13.712;2023-07-29T02:20:34;99662.59;;;27.28;50.74
6453;BME280;3259;51.080;13.712;2023-07-29T02:23:23;99661.63;;;27.22;50.88
6453;BME280;3259;51.080;13.712;2023-07-29T02:26:12;99663.03;;;27.25;50.90
6453;BME280;3259;51.080;13.712;2023-07-29T02:29:01;99662.22;;;27.24;50.84
6453;BME280;3259;51.080;13.712;2023-07-29T02:31:51;99661.97;;;27.26;50.70
6453;BME280;3259;51.080;13.712;2023-07-29T02:34:39;99660.25;;;27.31;50.42
6453;BME280;3259;51.080;13.712;2023-07-29T02:37:29;99662.59;;;27.28;50.64
6453;BME280;3259;51.080;13.712;2023-07-29T02:40:18;99667.94;;;27.28;50.62
6453;BME280;3259;51.080;13.712;2023-07-29T02:43:07;99669.22;;;27.25;50.59
6453;BME280;3259;51.080;13.712;2023-07-29T02:45:56;99675.38;;;27.26;50.61
6453;BME280;3259;51.080;13.712;2023-07-29T02:48:46;99675.72;;;27.29;50.51
6453;BME280;3259;51.080;13.712;2023-07-29T02:51:35;99681.09;;;27.29;50.32
6453;BME280;3259;51.080;13.712;2023-07-29T02:54:24;99689.59;;;27.26;50.64
6453;BME280;3259;51.080;13.712;2023-07-29T02:57:13;99692.25;;;27.26;50.67
6453;BME280;3259;51.080;13.712;2023-07-29T03:00:02;99696.34;;;27.29;50.33
6453;BME280;3259;51.080;13.712;2023-07-29T03:02:51;99698.19;;;27.28;50.59
6453;BME280;3259;51.080;13.712;2023-07-29T03:05:41;99700.06;;;27.28;50.71
6453;BME280;3259;51.080;13.712;2023-07-29T03:08:30;99696.34;;;27.29;50.60
6453;BME280;3259;51.080;13.712;2023-07-29T03:11:19;99693.31;;;27.25;50.68
6453;BME280;3259;51.080;13.712;2023-07-29T03:14:08;99698.19;;;27.28;50.31
6453;BME280;3259;51.080;13.712;2023-07-29T03:16:56;99700.28;;;27.26;50.47
6453;BME280;3259;51.080;13.712;2023-07-29T03:19:46;99697.25;;;27.23;50.39
6453;BME280;3259;51.080;13.712;2023-07-29T03:22:36;99699.72;;;27.24;50.21
6453;BME280;3259;51.080;13.712;2023-07-29T03:25:25;99697.25;;;27.23;50.28
6453;BME280;3259;51.080;13.712;2023-07-29T03:28:13;99707.00;;;27.17;50.42
6453;BME280;3259;51.080;13.712;2023-07-29T03:31:02;99693.25;;;27.14;50.54
6453;BME280;3259;51.080;13.712;2023-07-29T03:33:51;99684.13;;;27.03;50.45
6453;BME280;3259;51.080;13.712;2023-07-29T03:36:40;99688.78;;;27.08;50.53
6453;BME280;3259;51.080;13.712;2023-07-29T03:39:30;99689.59;;;27.08;50.47
6453;BME280;3259;51.080;13.712;2023-07-29T03:42:19;99685.47;;;27.12;50.37
6453;BME280;3259;51.080;13.712;2023-07-29T03:45:08;99686.13;;;27.08;50.42
6453;BME280;3259;51.080;13.712;2023-07-29T03:47:57;99678.53;;;27.05;50.81
6453;BME280;3259;51.080;13.712;2023-07-29T03:50:45;99676.81;;;27.10;50.43
6453;BME280;3259;51.080;13.712;2023-07-29T03:53:34;99670.25;;;27.06;50.72
6453;BME280;3259;51.080;13.712;2023-07-29T03:56:24;99676.09;;;27.03;50.54
6453;BME280;3259;51.080;13.712;2023-07-29T03:59:13;99677.59;;;26.99;50.83
6453;BME280;3259;51.080;13.712;2023-07-29T04:02:02;99685.00;;;27.15;50.24
6453;BME280;3259;51.080;13.712;2023-07-29T04:04:51;99680.19;;;27.06;50.43
6453;BME280;3259;51.080;13.712;2023-07-29T04:07:40;99678.88;;;27.08;50.44
6453;BME280;3259;51.080;13.712;2023-07-29T04:10:29;99677.72;;;27.04;50.58
6453;BME280;3259;51.080;13.712;2023-07-29T04:13:20;99679.34;;;27.05;50.84
6453;BME280;3259;51.080;13.712;2023-07-29T04:16:09;99690.97;;;26.99;50.78
6453;BME280;3259;51.080;13.712;2023-07-29T04:18:57;99686.78;;;27.03;50.89
6453;BME280;3259;51.080;13.712;2023-07-29T04:21:46;99686.78;;;27.03;51.00
6453;BME280;3259;51.080;13.712;2023-07-29T04:24:35;99679.34;;;27.05;50.80
6453;BME280;3259;51.080;13.712;2023-07-29T04:27:24;99669.91;;;27.03;51.06
6453;BME280;3259;51.080;13.712;2023-07-29T04:30:14;99680.19;;;27.06;50.83
6453;BME280;3259;51.080;13.712;2023-07-29T04:33:02;99678.19;;;27.01;51.09
6453;BME280;3259;51.080;13.712;2023-07-29T04:35:51;99684.00;;;26.98;50.98
6453;BME280;3259;51.080;13.712;2023-07-29T04:38:40;99689.69;;;27.02;51.07
6453;BME280;3259;51.080;13.712;2023-07-29T04:41:29;99687.97;;;27.07;50.98
6453;BME280;3259;51.080;13.712;2023-07-29T04:44:18;99683.59;;;27.13;51.01
6453;BME280;3259;51.080;13.712;2023-07-29T04:47:08;99680.13;;;27.12;50.99
6453;BME280;3259;51.080;13.712;2023-07-29T04:49:56;99671.91;;;27.07;51.14
6453;BME280;3259;51.080;13.712;2023-07-29T04:52:45;99679.28;;;27.12;51.01
6453;BME280;3259;51.080;13.712;2023-07-29T04:55:34;99680.81;;;27.19;50.83
6453;BME280;3259;51.080;13.712;2023-07-29T04:58:23;99680.97;;;27.24;50.98
6453;BME280;3259;51.080;13.712;2023-07-29T05:01:12;99673.97;;;27.23;50.83
6453;BME280;3259;51.080;13.712;2023-07-29T05:04:02;99679.91;;;27.25;50.91
6453;BME280;3259;51.080;13.712;2023-07-29T05:06:51;99672.34;;;27.22;51.20
6453;BME280;3259;51.080;13.712;2023-07-29T05:09:39;99680.13;;;27.24;51.13
6453;BME280;3259;51.080;13.712;2023-07-29T05:12:28;99670.09;;;27.19;51.31
6453;BME280;3259;51.080;13.712;2023-07-29T05:15:18;99668.47;;;27.18;51.03
6453;BME280;3259;51.080;13.712;2023-07-29T05:18:07;99673.84;;;27.18;51.31
6453;BME280;3259;51.080;13.712;2023-07-29T05:20:58;99670.94;;;27.20;51.08
6453;BME280;3259;51.080;13.712;2023-07-29T05:23:46;99673.41;;;27.21;51.27
6453;BME280;3259;51.080;13.712;2023-07-29T05:26:35;99669.22;;;27.25;51.09
6453;BME280;3259;51.080;13.712;2023-07-29T05:29:24;99657.91;;;27.23;51.34
6453;BME280;3259;51.080;13.712;2023-07-29T05:32:13;99658.50;;;27.25;50.71
6453;BME280;3259;51.080;13.712;2023-07-29T05:35:02;99663.03;;;27.25;50.79
6453;BME280;3259;51.080;13.712;2023-07-29T05:37:52;99655.22;;;27.23;51.16
6453;BME280;3259;51.080;13.712;2023-07-29T05:40:41;99657.19;;;27.16;51.31
6453;BME280;3259;51.080;13.712;2023-07-29T05:43:30;99643.78;;;27.16;51.30
6453;BME280;3259;51.080;13.712;2023-07-29T05:46:18;99648.34;;;27.16;51.52
6453;BME280;3259;51.080;13.712;2023-07-29T05:49:07;99649.88;;;27.23;51.33
6453;BME280;3259;51.080;13.712;2023-07-29T05:51:56;99648.47;;;27.21;51.24
6453;BME280;3259;51.080;13.712;2023-07-29T05:54:46;99640.44;;;27.21;51.00
6453;BME280;3259;51.080;13.712;2023-07-29T05:57:35;99641.38;;;27.26;51.12
6453;BME280;3259;51.080;13.712;2023-07-29T06:00:24;99633.22;;;27.21;51.18
6453;BME280;3259;51.080;13.712;2023-07-29T06:03:12;99634.97;;;27.27;50.80
6453;BME280;3259;51.080;13.712;2023-07-29T06:06:01;99637.06;;;27.25;50.80
6453;BME280;3259;51.080;13.712;2023-07-29T06:08:50;99641.59;;;27.25;50.92
6453;BME280;3259;51.080;13.712;2023-07-29T06:11:40;99632.19;;;27.22;50.90
6453;BME280;3259;51.080;13.712;2023-07-29T06:14:29;99629.16;;;27.30;50.91
6453;BME280;3259;51.080;13.712;2023-07-29T06:17:19;99621.69;;;27.32;50.55
6453;BME280;3259;51.080;13.712;2023-07-29T06:20:09;99626.47;;;27.30;50.60
6453;BME280;3259;51.080;13.712;2023-07-29T06:22:57;99632.88;;;27.29;50.93
6453;BME280;3259;51.080;13.712;2023-07-29T06:25:46;99638.22;;;27.29;50.97
6453;BME280;3259;51.080;13.712;2023-07-29T06:28:39;99631.97;;;27.35;50.58
6453;BME280;3259;51.080;13.712;2023-07-29T06:31:28;99627.88;;;27.33;50.21
6453;BME280;3259;51.080;13.712;2023-07-29T06:34:17;99630.78;;;27.31;50.52
6453;BME280;3259;51.080;13.712;2023-07-29T06:37:06;99632.88;;;27.29;50.25
6453;BME280;3259;51.080;13.712;2023-07-29T06:39:55;99641.38;;;27.26;50.51
6453;BME280;3259;51.080;13.712;2023-07-29T06:42:43;99646.63;;;27.21;50.65
6453;BME280;3259;51.080;13.712;2023-07-29T06:45:34;99647.41;;;27.22;50.56
6453;BME280;3259;51.080;13.712;2023-07-29T06:48:25;99641.25;;;27.21;50.73
6453;BME280;3259;51.080;13.712;2023-07-29T06:51:14;99648.69;;;27.19;50.74
6453;BME280;3259;51.080;13.712;2023-07-29T06:54:03;99646.63;;;27.21;50.34
6453;BME280;3259;51.080;13.712;2023-07-29T06:56:52;99641.25;;;27.21;49.90
6453;BME280;3259;51.080;13.712;2023-07-29T06:59:40;99648.38;;;27.27;49.71
6453;BME280;3259;51.080;13.712;2023-07-29T07:02:31;99646.16;;;27.24;49.73
6453;BME280;3259;51.080;13.712;2023-07-29T07:05:19;99644.63;;;27.28;49.29
6453;BME280;3259;51.080;13.712;2023-07-29T07:08:08;99635.34;;;27.31;49.36
6453;BME280;3259;51.080;13.712;2023-07-29T07:10:57;99634.50;;;27.30;49.45
6453;BME280;3259;51.080;13.712;2023-07-29T07:13:46;99636.97;;;27.32;49.59
6453;BME280;3259;51.080;13.712;2023-07-29T07:16:35;99638.34;;;27.23;49.58
6453;BME280;3259;51.080;13.712;2023-07-29T07:19:28;99637.97;;;27.19;50.09
6453;BME280;3259;51.080;13.712;2023-07-29T07:22:16;99630.56;;;27.21;50.01
6453;BME280;3259;51.080;13.712;2023-07-29T07:25:06;99623.22;;;27.28;49.60
6453;BME280;3259;51.080;13.712;2023-07-29T07:27:55;99622.16;;;27.29;49.00
6453;BME280;3259;51.080;13.712;2023-07-29T07:30:44;99614.28;;;27.34;48.88
6453;BME280;3259;51.080;13.712;2023-07-29T07:33:32;99605.66;;;27.44;47.99
6453;BME280;3259;51.080;13.712;2023-07-29T07:36:23;99600.63;;;27.36;48.23
6453;BME280;3259;51.080;13.712;2023-07-29T07:39:11;99596.31;;;27.35;47.98
6453;BME280;3259;51.080;13.712;2023-07-29T07:42:00;99597.00;;;27.30;48.71
6453;BME280;3259;51.080;13.712;2023-07-29T07:44:49;99588.28;;;27.35;48.42
6453;BME280;3259;51.080;13.712;2023-07-29T07:47:38;99592.84;;;27.34;48.15
6453;BME280;3259;51.080;13.712;2023-07-29T07:50:29;99593.06;;;27.44;47.34
6453;BME280;3259;51.080;13.712;2023-07-29T07:53:19;99589.81;;;27.42;47.50
6453;BME280;3259;51.080;13.712;2023-07-29T07:56:08;99581.31;;;27.45;46.71
6453;BME280;3259;51.080;13.712;2023-07-29T07:58:57;99575.81;;;27.40;47.12
6453;BME280;3259;51.080;13.712;2023-07-29T08:01:45;99573.38;;;27.39;47.30
6453;BME280;3259;51.080;13.712;2023-07-29T08:04:34;99569.19;;;27.43;47.12
6453;BME280;3259;51.080;13.712;2023-07-29T08:07:23;99567.09;;;27.45;46.94
6453;BME280;3259;51.080;13.712;2023-07-29T08:10:13;99557.31;;;27.50;46.48
6453;BME280;3259;51.080;13.712;2023-07-29T08:13:02;99566.28;;;27.44;46.64
6453;BME280;3259;51.080;13.712;2023-07-29T08:15:52;99568.72;;;27.46;46.87
6453;BME280;3259;51.080;13.712;2023-07-29T08:18:41;99561.16;;;27.54;46.04
6453;BME280;3259;51.080;13.712;2023-07-29T08:21:30;99555.13;;;27.47;46.55
6453;BME280;3259;51.080;13.712;2023-07-29T08:24:19;99561.53;;;27.46;46.32
6453;BME280;3259;51.080;13.712;2023-07-29T08:27:09;99559.66;;;27.58;45.75
6453;BME280;3259;51.080;13.712;2023-07-29T08:29:58;99556.97;;;27.58;45.87
6453;BME280;3259;51.080;13.712;2023-07-29T08:32:46;99555.13;;;27.47;46.16
6453;BME280;3259;51.080;13.712;2023-07-29T08:35:35;99561.63;;;27.51;46.38
6453;BME280;3259;51.080;13.712;2023-07-29T08:38:24;99559.88;;;27.57;46.16
6453;BME280;3259;51.080;13.712;2023-07-29T08:41:19;99559.66;;;27.58;46.48
6453;BME280;3259;51.080;13.712;2023-07-29T08:44:12;99552.28;;;27.65;46.17
6453;BME280;3259;51.080;13.712;2023-07-29T08:47:06;99557.28;;;27.62;46.10
6453;BME280;3259;51.080;13.712;2023-07-29T08:49:56;99559.41;;;27.71;45.75
6453;BME280;3259;51.080;13.712;2023-07-29T08:52:46;99563.38;;;27.92;45.85
6453;BME280;3259;51.080;13.712;2023-07-29T08:55:36;99564.16;;;27.92;45.69
6453;BME280;3259;51.080;13.712;2023-07-29T08:58:26;99563.16;;;27.93;45.81
6453;BME280;3259;51.080;13.712;2023-07-29T09:01:17;99559.50;;;27.99;45.34
6453;BME280;3259;51.080;13.712;2023-07-29T09:04:09;99565.56;;;28.06;45.37
6453;BME280;3259;51.080;13.712;2023-07-29T09:06:59;99565.88;;;28.21;45.11
6453;BME280;3259;51.080;13.712;2023-07-29T09:09:47;99556.34;;;28.02;45.47
6453;BME280;3259;51.080;13.712;2023-07-29T09:12:36;99563.47;;;27.97;45.70
6453;BME280;3259;51.080;13.712;2023-07-29T09:15:28;99565.44;;;28.01;45.51
6453;BME280;3259;51.080;13.712;2023-07-29T09:18:20;99572.22;;;28.04;45.71
6453;BME280;3259;51.080;13.712;2023-07-29T09:21:09;99566.00;;;28.03;45.71
6453;BME280;3259;51.080;13.712;2023-07-29T09:24:02;99570.59;;;28.31;45.38
6453;BME280;3259;51.080;13.712;2023-07-29T09:26:51;99550.63;;;28.10;45.93
6453;BME280;3259;51.080;13.712;2023-07-29T09:29:41;99551.09;;;28.07;45.68
6453;BME280;3259;51.080;13.712;2023-07-29T09:32:30;99547.47;;;28.13;45.92
6453;BME280;3259;51.080;13.712;2023-07-29T09:35:21;99545.47;;;28.20;46.20
6453;BME280;3259;51.080;13.712;2023-07-29T09:38:14;99557.47;;;28.29;45.93
6453;BME280;3259;51.080;13.712;2023-07-29T09:41:03;99554.78;;;28.29;46.06
6453;BME280;3259;51.080;13.712;2023-07-29T09:43:56;99551.31;;;28.17;45.91
6453;BME280;3259;51.080;13.712;2023-07-29T09:46:45;99546.28;;;28.32;45.51
6453;BME280;3259;51.080;13.712;2023-07-29T09:49:35;99550.94;;;28.37;45.38
6453;BME280;3259;51.080;13.712;2023-07-29T09:52:25;99546.03;;;28.22;46.00
6453;BME280;3259;51.080;13.712;2023-07-29T09:55:17;99546.59;;;28.24;45.81
6453;BME280;3259;51.080;13.712;2023-07-29T09:58:06;99543.09;;;28.35;45.97
6453;BME280;3259;51.080;13.712;2023-07-29T10:00:55;99541.25;;;28.24;45.59
6453;BME280;3259;51.080;13.712;2023-07-29T10:03:44;99534.03;;;28.13;46.11
6453;BME280;3259;51.080;13.712;2023-07-29T10:06:34;99545.94;;;28.17;45.96
6453;BME280;3259;51.080;13.712;2023-07-29T10:09:25;99542.22;;;28.18;46.05
6453;BME280;3259;51.080;13.712;2023-07-29T10:12:14;99538.81;;;28.23;45.46
6453;BME280;3259;51.080;13.712;2023-07-29T10:15:06;99538.97;;;28.16;46.01
6453;BME280;3259;51.080;13.712;2023-07-29T10:17:55;99544.97;;;28.23;46.38
6453;BME280;3259;51.080;13.712;2023-07-29T10:20:45;99541.63;;;28.16;45.95
6453;BME280;3259;51.080;13.712;2023-07-29T10:23:38;99539.06;;;28.10;45.93
6453;BME280;3259;51.080;13.712;2023-07-29T10:26:31;99530.09;;;28.04;45.90
6453;BME280;3259;51.080;13.712;2023-07-29T10:29:24;99535.47;;;28.04;46.24
6453;BME280;3259;51.080;13.712;2023-07-29T10:32:16;99532.41;;;28.12;46.15
6453;BME280;3259;51.080;13.712;2023-07-29T10:35:05;99530.59;;;28.01;46.88
6453;BME280;3259;51.080;13.712;2023-07-29T10:37:55;99529.84;;;28.17;47.11
6453;BME280;3259;51.080;13.712;2023-07-29T10:40:46;99529.03;;;28.17;46.91
6453;BME280;3259;51.080;13.712;2023-07-29T10:43:37;99529.84;;;28.17;47.44
6453;BME280;3259;51.080;13.712;2023-07-29T10:46:25;99524.50;;;28.17;48.27
6453;BME280;3259;51.080;13.712;2023-07-29T10:49:22;99520.06;;;28.11;48.44
6453;BME280;3259;51.080;13.712;2023-07-29T10:52:13;99524.28;;;28.07;48.64
6453;BME280;3259;51.080;13.712;2023-07-29T10:55:03;99522.41;;;28.08;48.96
6453;BME280;3259;51.080;13.712;2023-07-29T10:58:11;99520.06;;;28.11;49.43
6453;BME280;3259;51.080;13.712;2023-07-29T11:01:12;99527.69;;;28.03;49.72
6453;BME280;3259;51.080;13.712;2023-07-29T11:04:22;99510.16;;;28.12;49.26
6453;BME280;3259;51.080;13.712;2023-07-29T11:07:24;99513.56;;;28.07;49.78
6453;BME280;3259;51.080;13.712;2023-07-29T11:10:16;99508.66;;;28.04;49.60
6453;BME280;3259;51.080;13.712;2023-07-29T11:13:05;99501.41;;;28.16;49.58
6453;BME280;3259;51.080;13.712;2023-07-29T11:15:55;99506.78;;;28.16;49.60
6453;BME280;3259;51.080;13.712;2023-07-29T11:18:47;99498.13;;;28.14;49.53
6453;BME280;3259;51.080;13.712;2023-07-29T11:21:36;99509.47;;;28.16;48.18
6453;BME280;3259;51.080;13.712;2023-07-29T11:24:26;99510.22;;;28.28;47.75
6453;BME280;3259;51.080;13.712;2023-07-29T11:27:15;99506.59;;;28.34;47.58
6453;BME280;3259;51.080;13.712;2023-07-29T11:30:05;99525.16;;;28.24;49.38
6453;BME280;3259;51.080;13.712;2023-07-29T11:32:55;99524.94;;;28.26;50.82
6453;BME280;3259;51.080;13.712;2023-07-29T11:35:45;99523.03;;;28.26;51.64
6453;BME280;3259;51.080;13.712;2023-07-29T11:38:34;99517.97;;;28.13;51.78
6453;BME280;3259;51.080;13.712;2023-07-29T11:41:24;99508.66;;;28.04;52.52
6453;BME280;3259;51.080;13.712;2023-07-29T11:44:16;99505.25;;;28.09;52.79
6453;BME280;3259;51.080;13.712;2023-07-29T11:47:06;99504.94;;;28.05;52.94
6453;BME280;3259;51.080;13.712;2023-07-29T11:49:58;99501.66;;;28.03;53.35
6453;BME280;3259;51.080;13.712;2023-07-29T11:52:50;99503.03;;;28.17;54.23
6453;BME280;3259;51.080;13.712;2023-07-29T11:55:38;99501.56;;;28.26;53.59
6453;BME280;3259;51.080;13.712;2023-07-29T11:58:27;99495.97;;;28.28;54.51
6453;BME280;3259;51.080;13.712;2023-07-29T12:01:16;99499.38;;;28.35;54.09
6453;BME280;3259;51.080;13.712;2023-07-29T12:04:05;99498.56;;;28.34;54.40
6453;BME280;3259;51.080;13.712;2023-07-29T12:06:54;99505.25;;;28.48;54.62
6453;BME280;3259;51.080;13.712;2023-07-29T12:09:46;99499.50;;;28.28;54.23
6453;BME280;3259;51.080;13.712;2023-07-29T12:12:44;99504.66;;;28.18;54.16
6453;BME280;3259;51.080;13.712;2023-07-29T12:15:33;99503.69;;;28.24;54.01
6453;BME280;3259;51.080;13.712;2023-07-29T12:18:29;99501.34;;;28.28;53.79
6453;BME280;3259;51.080;13.712;2023-07-29T12:21:19;99492.03;;;28.30;53.92
6453;BME280;3259;51.080;13.712;2023-07-29T12:24:08;99497.19;;;28.20;53.53
6453;BME280;3259;51.080;13.712;2023-07-29T12:26:58;99490.69;;;28.16;52.61
6453;BME280;3259;51.080;13.712;2023-07-29T12:29:47;99485.47;;;28.26;52.21
6453;BME280;3259;51.080;13.712;2023-07-29T12:32:43;99474.75;;;28.26;51.43
6453;BME280;3259;51.080;13.712;2023-07-29T12:35:37;99473.28;;;28.19;50.79
6453;BME280;3259;51.080;13.712;2023-07-29T12:38:26;99464.31;;;28.13;50.08
6453;BME280;3259;51.080;13.712;2023-07-29T12:41:15;99474.97;;;28.08;49.79
6453;BME280;3259;51.080;13.712;2023-07-29T12:44:08;99472.38;;;28.13;49.71
6453;BME280;3259;51.080;13.712;2023-07-29T12:46:56;99468.75;;;28.19;49.36
6453;BME280;3259;51.080;13.712;2023-07-29T12:49:45;99457.81;;;28.09;49.22
6453;BME280;3259;51.080;13.712;2023-07-29T12:52:34;99464.81;;;28.10;49.08
6453;BME280;3259;51.080;13.712;2023-07-29T12:55:23;99464.25;;;28.08;49.29
6453;BME280;3259;51.080;13.712;2023-07-29T12:58:11;99461.56;;;28.08;49.68
6453;BME280;3259;51.080;13.712;2023-07-29T13:01:01;99461.00;;;28.06;49.47
6453;BME280;3259;51.080;13.712;2023-07-29T13:03:50;99450.84;;;28.08;49.32
6453;BME280;3259;51.080;13.712;2023-07-29T13:06:39;99449.44;;;28.06;49.55
6453;BME280;3259;51.080;13.712;2023-07-29T13:09:27;99441.88;;;28.03;49.62
6453;BME280;3259;51.080;13.712;2023-07-29T13:12:16;99436.25;;;28.04;49.79
6453;BME280;3259;51.080;13.712;2023-07-29T13:15:06;99440.66;;;28.10;49.23
6453;BME280;3259;51.080;13.712;2023-07-29T13:17:56;99446.38;;;28.14;48.99
6453;BME280;3259;51.080;13.712;2023-07-29T13:20:45;99444.97;;;28.11;48.68
6453;BME280;3259;51.080;13.712;2023-07-29T13:23:34;99440.91;;;28.09;48.75
6453;BME280;3259;51.080;13.712;2023-07-29T13:26:23;99444.19;;;28.11;48.77
6453;BME280;3259;51.080;13.712;2023-07-29T13:29:11;99448.53;;;28.00;48.92
6453;BME280;3259;51.080;13.712;2023-07-29T13:32:00;99437.34;;;28.20;48.87
6453;BME280;3259;51.080;13.712;2023-07-29T13:34:50;99451.59;;;28.20;48.42
6453;BME280;3259;51.080;13.712;2023-07-29T13:37:39;99445.09;;;28.16;47.95
6453;BME280;3259;51.080;13.712;2023-07-29T13:40:28;99439.81;;;28.21;47.75
6453;BME280;3259;51.080;13.712;2023-07-29T13:43:17;99439.31;;;28.24;47.51
6453;BME280;3259;51.080;13.712;2023-07-29T13:46:05;99436.75;;;28.29;47.30
6453;BME280;3259;51.080;13.712;2023-07-29T13:48:54;99446.53;;;28.35;47.19
6453;BME280;3259;51.080;13.712;2023-07-29T13:51:44;99447.34;;;28.36;47.34
6453;BME280;3259;51.080;13.712;2023-07-29T13:54:33;99444.03;;;28.45;46.79
6453;BME280;3259;51.080;13.712;2023-07-29T13:57:22;99448.91;;;28.48;46.54
6453;BME280;3259;51.080;13.712;2023-07-29T14:00:11;99448.50;;;28.56;45.52
6453;BME280;3259;51.080;13.712;2023-07-29T14:03:02;99451.19;;;28.56;45.50
6453;BME280;3259;51.080;13.712;2023-07-29T14:05:51;99442.66;;;28.59;45.19
6453;BME280;3259;51.080;13.712;2023-07-29T14:08:41;99444.94;;;28.67;44.99
6453;BME280;3259;51.080;13.712;2023-07-29T14:11:30;99446.31;;;28.69;45.33
6453;BME280;3259;51.080;13.712;2023-07-29T14:14:19;99440.19;;;28.74;45.37
6453;BME280;3259;51.080;13.712;2023-07-29T14:17:08;99440.69;;;28.71;46.25
6453;BME280;3259;51.080;13.712;2023-07-29T14:19:57;99434.03;;;28.57;46.28
6453;BME280;3259;51.080;13.712;2023-07-29T14:22:46;99436.31;;;28.65;45.68
6453;BME280;3259;51.080;13.712;2023-07-29T14:25:36;99419.88;;;28.78;45.62
6453;BME280;3259;51.080;13.712;2023-07-29T14:28:24;99419.63;;;28.63;45.79
6453;BME280;3259;51.080;13.712;2023-07-29T14:31:13;99410.13;;;28.72;46.46
6453;BME280;3259;51.080;13.712;2023-07-29T14:34:03;99413.06;;;28.70;45.64
6453;BME280;3259;51.080;13.712;2023-07-29T14:36:52;99402.16;;;28.77;45.69
6453;BME280;3259;51.080;13.712;2023-07-29T14:39:41;99403.84;;;28.83;46.08
6453;BME280;3259;51.080;13.712;2023-07-29T14:42:31;99397.97;;;28.86;44.95
6453;BME280;3259;51.080;13.712;2023-07-29T14:45:22;99393.59;;;28.80;44.55
6453;BME280;3259;51.080;13.712;2023-07-29T14:48:11;99398.25;;;29.01;44.01
6453;BME280;3259;51.080;13.712;2023-07-29T14:50:59;99393.59;;;29.13;44.18
6453;BME280;3259;51.080;13.712;2023-07-29T14:53:48;99402.63;;;29.07;44.52
6453;BME280;3259;51.080;13.712;2023-07-29T14:56:37;99399.53;;;29.15;43.87
6453;BME280;3259;51.080;13.712;2023-07-29T14:59:27;99394.94;;;29.15;43.57
6453;BME280;3259;51.080;13.712;2023-07-29T15:02:15;99393.38;;;29.36;43.32
6453;BME280;3259;51.080;13.712;2023-07-29T15:05:05;99399.72;;;29.30;43.20
6453;BME280;3259;51.080;13.712;2023-07-29T15:07:54;99393.97;;;29.43;43.43
6453;BME280;3259;51.080;13.712;2023-07-29T15:10:45;99405.13;;;29.51;43.98